Bluff Estates, South Carolina
Current Conditions -  °F | °C
As of 3:53 AM on Saturday 22 Nov 2014 (Local Time) from KCUB Reporting Station
Clear Clear  
Wind Chill:   Ceiling: Unl
Heat Index:   Visibility: 10mi
Dew Point: -4°   Wind: 0mph
Humidity: 73%   Direction: NA
Pressure: 30.53"   Gusts: NA
Location:  33.9488°N, 80.9462°W
Report Text: KCUB 220853Z AUTO 00000KT 10SM CLR 00/M04 A3053 RMK AO2 SLP338 T00001044 51004
Loading
Personal Weather Stations






























Interactive Weather Map New forecast layout! Learn more

10-Day Weather Forecast

Advertisements
Track Severe Weather on mobile